TimeCDT,TemperatureF,Dew PointF,Humidity,Sea Level PressureIn,VisibilityMPH,Wind Direction,Wind SpeedMPH,Gust SpeedMPH,PrecipitationIn,Events,Conditions,WindDirDegrees,DateUTC
12:54 AM,39.2,30.2,70,30.24,10.0,NNW,17.3,26.5,N/A,,Overcast,340,2012-10-26 05:54:00
1:54 AM,39.0,30.0,70,30.26,10.0,NNW,16.1,24.2,N/A,,Overcast,330,2012-10-26 06:54:00
2:54 AM,37.9,28.0,68,30.28,10.0,NNW,20.7,26.5,N/A,,Overcast,340,2012-10-26 07:54:00
3:54 AM,37.0,28.0,70,30.30,10.0,North,11.5,-,N/A,,Mostly Cloudy,350,2012-10-26 08:54:00
4:54 AM,34.0,27.0,75,30.31,10.0,NNW,8.1,-,N/A,,Clear,330,2012-10-26 09:54:00
5:54 AM,34.0,27.0,75,30.34,10.0,NNW,6.9,-,N/A,,Clear,330,2012-10-26 10:54:00
6:54 AM,33.1,27.0,78,30.35,10.0,NNW,10.4,-,N/A,,Clear,330,2012-10-26 11:54:00
7:54 AM,33.1,27.0,78,30.37,10.0,NNW,9.2,-,N/A,,Clear,340,2012-10-26 12:54:00
8:54 AM,37.0,28.0,70,30.39,10.0,North,12.7,-,N/A,,Clear,350,2012-10-26 13:54:00
9:54 AM,39.9,28.0,63,30.39,10.0,North,13.8,-,N/A,,Clear,360,2012-10-26 14:54:00
10:54 AM,42.1,27.0,55,30.38,10.0,North,21.9,27.6,N/A,,Clear,360,2012-10-26 15:54:00
11:54 AM,44.1,27.0,51,30.39,10.0,North,15.0,25.3,N/A,,Clear,360,2012-10-26 16:54:00
12:54 PM,46.9,28.9,50,30.39,10.0,North,15.0,25.3,N/A,,Clear,350,2012-10-26 17:54:00
1:54 PM,46.9,28.0,48,30.37,10.0,NNW,16.1,-,N/A,,Clear,340,2012-10-26 18:54:00
2:54 PM,46.9,28.0,48,30.35,10.0,NNW,13.8,-,N/A,,Clear,340,2012-10-26 19:54:00
3:54 PM,46.0,28.0,50,30.33,10.0,NNW,12.7,-,N/A,,Clear,340,2012-10-26 20:54:00
4:54 PM,45.0,27.0,49,30.34,10.0,North,15.0,-,N/A,,Clear,360,2012-10-26 21:54:00
5:54 PM,44.1,28.0,53,30.34,10.0,NNW,11.5,-,N/A,,Clear,340,2012-10-26 22:54:00
6:54 PM,39.9,28.9,65,30.36,10.0,NNW,6.9,-,N/A,,Clear,330,2012-10-26 23:54:00
7:54 PM,37.0,28.9,73,30.37,10.0,NNW,5.8,-,N/A,,Clear,340,2012-10-27 00:54:00
8:54 PM,37.0,28.0,70,30.37,10.0,NNW,5.8,-,N/A,,Clear,340,2012-10-27 01:54:00
9:54 PM,37.0,28.9,73,30.37,10.0,North,6.9,-,N/A,,Clear,10,2012-10-27 02:54:00
10:54 PM,36.0,28.0,73,30.38,10.0,North,9.2,-,N/A,,Clear,360,2012-10-27 03:54:00
11:54 PM,35.1,28.0,76,30.37,10.0,North,11.5,-,N/A,,Clear,360,2012-10-27 04:54:00